メインページ
METAR-TAF:

METAR-TAF

空港 :

Oshawa Executive Airport

オシャワ, オンタリオ州, カナダ

緯度: 43-55-22N, 経度: 78-53-48W, 海抜: 140m

現時点の気象観測

当レポートは1時間14分前の05:00(UTC)に作成
の風 7kt
気温 6°C
湿度 100%
気圧 1017 hPa
視程: 12.9km
高度1500ftの曇り

METAR: CYOO 040500Z AUTO 35007KT 8SM OVC015 06/06 A3002 RMK SLP171

時間: 02:14 (06:14 UTC)

予報

当レポートは4時間36分前の01:38(UTC)に作成
予報は04日の 02時(UTC)から 04日の 14時(UTC)まで有効
の風 5kt
視程: 10km
高度1200ftの雲は散在している
高度7000ftの千切れ雲あり
04日の 02時(UTC)から 04日の 06時(UTC)まで一時的に
視程: 8.0km
高度1200ftの千切れ雲あり
高度7000ftの曇り
小霧雨, 靄
確率 30%
04日の 02時(UTC)から 04日の 06時(UTC)まで
視程: 4.8km
高度700ftの千切れ雲あり
高度1200ftの曇り
小霧雨, 靄
04日の 0600時(UTC)から
の風 6kt
視程: 10km
高度1200ftの千切れ雲あり
高度6000ftの曇り
04日の 06時(UTC)から 04日の 10時(UTC)まで一時的に
視程: 8.0km
高度700ftの曇り
小霧雨, 靄
04日の 1000時(UTC)から
北/北東の風 5kt
視程: 4.8km
高度600ftの曇り
小霧雨, 靄
04日の 10時(UTC)から 04日の 14時(UTC)まで一時的に
視程: 10km
高度1000ftの曇り

TAF: CYOO 040138Z 0402/0414 35005KT P6SM SCT012 BKN070 TEMPO 0402/0406 5SM -DZ BR BKN012 OVC070 PROB30 0402/0406 3SM -DZ BR BKN007 OVC012 FM040600 01006KT P6SM BKN012 OVC060 TEMPO 0406/0410 5SM -DZ BR OVC007 FM041000 02005KT 3SM -DZ BR OVC006 TEMPO 0410/0414 P6SM NSW OVC010 RMK FCST BASED ON AUTO OBS. NXT FCST BY 040800Z

4,000以上の空港の気象観測と天気予報(METAR報とTAF報)

利用可能な観測所は地図上に黄色い丸と赤い丸で示す。

丸の上にカーソルを重ねると観測所名を参照できる。

次にクリックすると気象観測と天気予報を参照できる。

マップの切り替え:黒色「×」印の緑ボタンをクリックして拡大、「-」印の緑ボタンをクリックして縮小、緑色の三角印をクリックして隣りの地図に切り替え


METAR-TAF: